sensor_id;sensor_type;location;lat;lon;timestamp;temperature;humidity
71173;DHT22;58875;51.996;4.504;2022-10-16T00:00:46;15.53;70.79
71173;DHT22;58875;51.996;4.504;2022-10-16T00:03:12;15.47;71.11
71173;DHT22;58875;51.996;4.504;2022-10-16T00:05:40;15.53;71.28
71173;DHT22;58875;51.996;4.504;2022-10-16T00:08:07;15.62;70.93
71173;DHT22;58875;51.996;4.504;2022-10-16T00:10:34;15.53;71.10
71173;DHT22;58875;51.996;4.504;2022-10-16T00:12:59;15.55;70.93
71173;DHT22;58875;51.996;4.504;2022-10-16T00:15:25;15.55;70.97
71173;DHT22;58875;51.996;4.504;2022-10-16T00:17:51;15.54;70.80
71173;DHT22;58875;51.996;4.504;2022-10-16T00:20:16;15.61;70.62
71173;DHT22;58875;51.996;4.504;2022-10-16T00:22:42;15.61;71.01
71173;DHT22;58875;51.996;4.504;2022-10-16T00:25:08;15.50;71.02
71173;DHT22;58875;51.996;4.504;2022-10-16T00:27:34;15.54;71.26
71173;DHT22;58875;51.996;4.504;2022-10-16T00:29:59;15.55;71.10
71173;DHT22;58875;51.996;4.504;2022-10-16T00:32:25;15.49;71.05
71173;DHT22;58875;51.996;4.504;2022-10-16T00:34:52;15.54;71.20
71173;DHT22;58875;51.996;4.504;2022-10-16T00:37:20;15.61;71.13
71173;DHT22;58875;51.996;4.504;2022-10-16T00:39:46;15.62;71.38
71173;DHT22;58875;51.996;4.504;2022-10-16T00:42:17;15.64;71.12
71173;DHT22;58875;51.996;4.504;2022-10-16T00:44:56;15.65;71.63
71173;DHT22;58875;51.996;4.504;2022-10-16T00:47:26;15.75;71.80
71173;DHT22;58875;51.996;4.504;2022-10-16T00:50:00;15.65;71.94
71173;DHT22;58875;51.996;4.504;2022-10-16T00:52:27;15.62;72.36
71173;DHT22;58875;51.996;4.504;2022-10-16T00:54:55;15.58;72.97
71173;DHT22;58875;51.996;4.504;2022-10-16T00:57:22;15.51;73.52
71173;DHT22;58875;51.996;4.504;2022-10-16T00:59:48;15.40;74.08
71173;DHT22;58875;51.996;4.504;2022-10-16T01:02:15;15.37;74.33
71173;DHT22;58875;51.996;4.504;2022-10-16T01:04:50;15.37;74.77
71173;DHT22;58875;51.996;4.504;2022-10-16T01:10:30;15.29;75.68
71173;DHT22;58875;51.996;4.504;2022-10-16T01:13:11;15.18;76.23
71173;DHT22;58875;51.996;4.504;2022-10-16T01:15:52;15.11;76.65
71173;DHT22;58875;51.996;4.504;2022-10-16T01:18:41;15.09;76.95
71173;DHT22;58875;51.996;4.504;2022-10-16T01:21:41;15.09;77.06
71173;DHT22;58875;51.996;4.504;2022-10-16T01:24:11;15.10;77.17
71173;DHT22;58875;51.996;4.504;2022-10-16T01:32:32;14.89;77.81
71173;DHT22;58875;51.996;4.504;2022-10-16T01:35:05;14.73;78.34
71173;DHT22;58875;51.996;4.504;2022-10-16T01:37:41;14.67;78.42
71173;DHT22;58875;51.996;4.504;2022-10-16T01:40:12;14.67;78.30
71173;DHT22;58875;51.996;4.504;2022-10-16T01:42:43;14.69;78.36
71173;DHT22;58875;51.996;4.504;2022-10-16T01:45:14;14.72;78.16
71173;DHT22;58875;51.996;4.504;2022-10-16T01:47:44;14.78;78.34
71173;DHT22;58875;51.996;4.504;2022-10-16T01:50:17;14.78;78.13
71173;DHT22;58875;51.996;4.504;2022-10-16T01:52:48;14.65;78.44
71173;DHT22;58875;51.996;4.504;2022-10-16T01:55:22;14.65;78.56
71173;DHT22;58875;51.996;4.504;2022-10-16T01:57:53;14.62;78.74
71173;DHT22;58875;51.996;4.504;2022-10-16T02:00:22;14.72;78.68
71173;DHT22;58875;51.996;4.504;2022-10-16T02:02:51;14.72;78.56
71173;DHT22;58875;51.996;4.504;2022-10-16T02:06:06;14.76;78.52
71173;DHT22;58875;51.996;4.504;2022-10-16T02:08:12;14.86;78.39
71173;DHT22;58875;51.996;4.504;2022-10-16T02:10:38;14.79;78.32
71173;DHT22;58875;51.996;4.504;2022-10-16T02:13:21;14.75;78.57
71173;DHT22;58875;51.996;4.504;2022-10-16T02:15:49;14.82;78.52
71173;DHT22;58875;51.996;4.504;2022-10-16T02:18:15;14.80;78.45
71173;DHT22;58875;51.996;4.504;2022-10-16T02:20:59;14.82;78.28
71173;DHT22;58875;51.996;4.504;2022-10-16T02:23:55;14.83;78.20
71173;DHT22;58875;51.996;4.504;2022-10-16T02:29:20;14.85;78.07
71173;DHT22;58875;51.996;4.504;2022-10-16T02:31:53;14.88;78.06
71173;DHT22;58875;51.996;4.504;2022-10-16T02:34:21;14.89;78.08
71173;DHT22;58875;51.996;4.504;2022-10-16T02:36:50;14.95;77.95
71173;DHT22;58875;51.996;4.504;2022-10-16T02:39:18;14.88;78.08
71173;DHT22;58875;51.996;4.504;2022-10-16T02:41:45;14.89;78.23
71173;DHT22;58875;51.996;4.504;2022-10-16T02:44:10;14.96;77.96
71173;DHT22;58875;51.996;4.504;2022-10-16T02:46:36;14.88;78.10
71173;DHT22;58875;51.996;4.504;2022-10-16T02:49:02;14.90;78.27
71173;DHT22;58875;51.996;4.504;2022-10-16T02:51:28;14.83;78.36
71173;DHT22;58875;51.996;4.504;2022-10-16T02:53:53;14.82;78.28
71173;DHT22;58875;51.996;4.504;2022-10-16T02:56:19;14.80;78.35
71173;DHT22;58875;51.996;4.504;2022-10-16T02:58:47;14.76;78.72
71173;DHT22;58875;51.996;4.504;2022-10-16T03:01:13;14.79;78.62
71173;DHT22;58875;51.996;4.504;2022-10-16T03:03:39;14.68;78.92
71173;DHT22;58875;51.996;4.504;2022-10-16T03:06:05;14.69;78.89
71173;DHT22;58875;51.996;4.504;2022-10-16T03:08:31;14.69;78.93
71173;DHT22;58875;51.996;4.504;2022-10-16T03:10:57;14.58;79.32
71173;DHT22;58875;51.996;4.504;2022-10-16T03:13:22;14.55;79.52
71173;DHT22;58875;51.996;4.504;2022-10-16T03:15:49;14.69;79.15
71173;DHT22;58875;51.996;4.504;2022-10-16T03:18:14;14.73;79.06
71173;DHT22;58875;51.996;4.504;2022-10-16T03:20:40;14.71;79.26
71173;DHT22;58875;51.996;4.504;2022-10-16T03:23:06;14.78;79.07
71173;DHT22;58875;51.996;4.504;2022-10-16T03:25:33;14.79;79.18
71173;DHT22;58875;51.996;4.504;2022-10-16T03:27:59;14.78;79.28
71173;DHT22;58875;51.996;4.504;2022-10-16T03:30:24;14.72;79.55
71173;DHT22;58875;51.996;4.504;2022-10-16T03:32:50;14.65;79.61
71173;DHT22;58875;51.996;4.504;2022-10-16T03:35:20;14.59;79.85
71173;DHT22;58875;51.996;4.504;2022-10-16T03:37:45;14.59;79.70
71173;DHT22;58875;51.996;4.504;2022-10-16T03:40:11;14.61;79.78
71173;DHT22;58875;51.996;4.504;2022-10-16T03:42:37;14.62;79.78
71173;DHT22;58875;51.996;4.504;2022-10-16T03:45:08;14.67;79.52
71173;DHT22;58875;51.996;4.504;2022-10-16T03:47:34;14.71;79.34
71173;DHT22;58875;51.996;4.504;2022-10-16T03:50:00;14.69;79.40
71173;DHT22;58875;51.996;4.504;2022-10-16T03:52:25;14.75;79.11
71173;DHT22;58875;51.996;4.504;2022-10-16T03:54:51;14.73;79.17
71173;DHT22;58875;51.996;4.504;2022-10-16T03:57:17;14.72;79.10
71173;DHT22;58875;51.996;4.504;2022-10-16T03:59:43;14.69;79.33
71173;DHT22;58875;51.996;4.504;2022-10-16T04:02:09;14.62;79.60
71173;DHT22;58875;51.996;4.504;2022-10-16T04:04:35;14.61;79.75
71173;DHT22;58875;51.996;4.504;2022-10-16T04:07:01;14.54;80.14
71173;DHT22;58875;51.996;4.504;2022-10-16T04:09:29;14.52;80.28
71173;DHT22;58875;51.996;4.504;2022-10-16T04:11:55;14.57;80.11
71173;DHT22;58875;51.996;4.504;2022-10-16T04:14:20;14.54;80.42
71173;DHT22;58875;51.996;4.504;2022-10-16T04:16:46;14.55;80.32
71173;DHT22;58875;51.996;4.504;2022-10-16T04:19:12;14.55;80.56
71173;DHT22;58875;51.996;4.504;2022-10-16T04:21:37;14.51;80.46
71173;DHT22;58875;51.996;4.504;2022-10-16T04:24:03;14.58;80.54
71173;DHT22;58875;51.996;4.504;2022-10-16T04:26:29;14.49;81.03
71173;DHT22;58875;51.996;4.504;2022-10-16T04:28:58;14.51;80.96
71173;DHT22;58875;51.996;4.504;2022-10-16T04:31:24;14.54;80.87
71173;DHT22;58875;51.996;4.504;2022-10-16T04:33:49;14.54;80.82
71173;DHT22;58875;51.996;4.504;2022-10-16T04:36:15;14.48;81.00
71173;DHT22;58875;51.996;4.504;2022-10-16T04:38:40;14.55;81.21
71173;DHT22;58875;51.996;4.504;2022-10-16T04:41:07;14.55;81.09
71173;DHT22;58875;51.996;4.504;2022-10-16T04:43:33;14.58;81.05
71173;DHT22;58875;51.996;4.504;2022-10-16T04:45:59;14.52;81.21
71173;DHT22;58875;51.996;4.504;2022-10-16T04:48:24;14.54;81.24
71173;DHT22;58875;51.996;4.504;2022-10-16T04:50:50;14.55;81.14
71173;DHT22;58875;51.996;4.504;2022-10-16T04:53:16;14.55;81.03
71173;DHT22;58875;51.996;4.504;2022-10-16T04:55:42;14.52;81.27
71173;DHT22;58875;51.996;4.504;2022-10-16T04:58:08;14.54;81.53
71173;DHT22;58875;51.996;4.504;2022-10-16T05:00:35;14.52;81.50
71173;DHT22;58875;51.996;4.504;2022-10-16T05:03:00;14.48;81.68
71173;DHT22;58875;51.996;4.504;2022-10-16T05:05:27;14.51;81.70
71173;DHT22;58875;51.996;4.504;2022-10-16T05:07:53;14.57;81.50
71173;DHT22;58875;51.996;4.504;2022-10-16T05:10:19;14.62;81.28
71173;DHT22;58875;51.996;4.504;2022-10-16T05:12:45;14.71;81.10
71173;DHT22;58875;51.996;4.504;2022-10-16T05:15:11;14.73;80.77
71173;DHT22;58875;51.996;4.504;2022-10-16T05:17:36;14.71;80.75
71173;DHT22;58875;51.996;4.504;2022-10-16T05:20:02;14.68;81.12
71173;DHT22;58875;51.996;4.504;2022-10-16T05:22:28;14.64;81.58
71173;DHT22;58875;51.996;4.504;2022-10-16T05:24:54;14.61;81.96
71173;DHT22;58875;51.996;4.504;2022-10-16T05:27:20;14.51;82.27
71173;DHT22;58875;51.996;4.504;2022-10-16T05:29:47;14.54;82.57
71173;DHT22;58875;51.996;4.504;2022-10-16T05:32:18;14.55;82.75
71173;DHT22;58875;51.996;4.504;2022-10-16T05:34:44;14.51;83.22
71173;DHT22;58875;51.996;4.504;2022-10-16T05:37:11;14.42;83.61
71173;DHT22;58875;51.996;4.504;2022-10-16T05:39:38;14.37;83.84
71173;DHT22;58875;51.996;4.504;2022-10-16T05:42:04;14.51;83.69
71173;DHT22;58875;51.996;4.504;2022-10-16T05:44:29;14.49;83.50
71173;DHT22;58875;51.996;4.504;2022-10-16T05:46:55;14.46;83.61
71173;DHT22;58875;51.996;4.504;2022-10-16T05:49:20;14.48;83.34
71173;DHT22;58875;51.996;4.504;2022-10-16T05:51:46;14.38;83.34
71173;DHT22;58875;51.996;4.504;2022-10-16T05:54:11;14.38;83.43
71173;DHT22;58875;51.996;4.504;2022-10-16T05:56:40;14.42;83.55
71173;DHT22;58875;51.996;4.504;2022-10-16T05:59:05;14.42;83.31
71173;DHT22;58875;51.996;4.504;2022-10-16T06:01:31;14.32;82.82
71173;DHT22;58875;51.996;4.504;2022-10-16T06:03:57;14.39;82.56
71173;DHT22;58875;51.996;4.504;2022-10-16T06:06:25;14.38;82.76
71173;DHT22;58875;51.996;4.504;2022-10-16T06:08:52;14.41;82.66
71173;DHT22;58875;51.996;4.504;2022-10-16T06:11:20;14.32;82.53
71173;DHT22;58875;51.996;4.504;2022-10-16T06:13:54;14.41;82.45
71173;DHT22;58875;51.996;4.504;2022-10-16T06:16:20;14.39;82.15
71173;DHT22;58875;51.996;4.504;2022-10-16T06:18:46;14.44;82.12
71173;DHT22;58875;51.996;4.504;2022-10-16T06:21:17;14.44;81.45
71173;DHT22;58875;51.996;4.504;2022-10-16T06:23:43;14.42;81.47
71173;DHT22;58875;51.996;4.504;2022-10-16T06:26:11;14.46;80.91
71173;DHT22;58875;51.996;4.504;2022-10-16T06:28:37;14.45;80.29
71173;DHT22;58875;51.996;4.504;2022-10-16T06:31:05;14.46;80.10
71173;DHT22;58875;51.996;4.504;2022-10-16T06:33:31;14.41;79.55
71173;DHT22;58875;51.996;4.504;2022-10-16T06:36:05;14.41;78.96
71173;DHT22;58875;51.996;4.504;2022-10-16T06:38:32;14.38;79.10
71173;DHT22;58875;51.996;4.504;2022-10-16T06:40:58;14.46;79.12
71173;DHT22;58875;51.996;4.504;2022-10-16T06:43:24;14.45;79.20
71173;DHT22;58875;51.996;4.504;2022-10-16T06:45:54;14.45;79.93
71173;DHT22;58875;51.996;4.504;2022-10-16T06:48:20;14.42;80.34
71173;DHT22;58875;51.996;4.504;2022-10-16T06:50:59;14.48;80.85
71173;DHT22;58875;51.996;4.504;2022-10-16T06:53:26;14.51;81.10
71173;DHT22;58875;51.996;4.504;2022-10-16T06:55:51;14.54;81.00
71173;DHT22;58875;51.996;4.504;2022-10-16T06:58:17;14.48;81.17
71173;DHT22;58875;51.996;4.504;2022-10-16T07:00:43;14.46;80.95
71173;DHT22;58875;51.996;4.504;2022-10-16T07:03:09;14.48;81.20
71173;DHT22;58875;51.996;4.504;2022-10-16T07:05:38;14.41;81.14
71173;DHT22;58875;51.996;4.504;2022-10-16T07:08:04;14.38;81.28
71173;DHT22;58875;51.996;4.504;2022-10-16T07:10:31;14.42;81.39
71173;DHT22;58875;51.996;4.504;2022-10-16T07:12:56;14.42;81.32
71173;DHT22;58875;51.996;4.504;2022-10-16T07:15:22;14.48;81.39
71173;DHT22;58875;51.996;4.504;2022-10-16T07:17:48;14.48;81.54
71173;DHT22;58875;51.996;4.504;2022-10-16T07:20:13;14.51;81.37
71173;DHT22;58875;51.996;4.504;2022-10-16T07:22:39;14.59;81.26
71173;DHT22;58875;51.996;4.504;2022-10-16T07:25:05;14.64;81.20
71173;DHT22;58875;51.996;4.504;2022-10-16T07:27:30;14.75;81.15
71173;DHT22;58875;51.996;4.504;2022-10-16T07:29:56;14.92;80.99
71173;DHT22;58875;51.996;4.504;2022-10-16T07:32:21;14.92;80.71
71173;DHT22;58875;51.996;4.504;2022-10-16T07:34:47;15.13;80.14
71173;DHT22;58875;51.996;4.504;2022-10-16T07:37:13;15.19;79.89
71173;DHT22;58875;51.996;4.504;2022-10-16T07:39:38;15.10;79.70
71173;DHT22;58875;51.996;4.504;2022-10-16T07:42:04;15.16;79.59
71173;DHT22;58875;51.996;4.504;2022-10-16T07:44:29;15.09;80.03
71173;DHT22;58875;51.996;4.504;2022-10-16T07:46:54;15.20;79.97
71173;DHT22;58875;51.996;4.504;2022-10-16T07:49:20;15.31;79.44
71173;DHT22;58875;51.996;4.504;2022-10-16T07:51:46;15.36;79.30
71173;DHT22;58875;51.996;4.504;2022-10-16T07:54:11;15.22;79.60
71173;DHT22;58875;51.996;4.504;2022-10-16T07:56:36;15.36;79.27
71173;DHT22;58875;51.996;4.504;2022-10-16T07:59:02;15.30;79.01
71173;DHT22;58875;51.996;4.504;2022-10-16T08:01:27;15.40;79.11
71173;DHT22;58875;51.996;4.504;2022-10-16T08:03:53;15.60;78.32
71173;DHT22;58875;51.996;4.504;2022-10-16T08:06:20;16.09;77.13
71173;DHT22;58875;51.996;4.504;2022-10-16T08:08:47;16.67;74.56
71173;DHT22;58875;51.996;4.504;2022-10-16T08:11:13;17.08;72.99
71173;DHT22;58875;51.996;4.504;2022-10-16T08:16:06;18.38;68.83
71173;DHT22;58875;51.996;4.504;2022-10-16T08:18:36;18.51;67.69
71173;DHT22;58875;51.996;4.504;2022-10-16T08:21:03;18.58;67.83
71173;DHT22;58875;51.996;4.504;2022-10-16T08:23:29;18.61;67.64
71173;DHT22;58875;51.996;4.504;2022-10-16T08:25:56;18.36;68.29
71173;DHT22;58875;51.996;4.504;2022-10-16T08:28:27;18.12;68.99
71173;DHT22;58875;51.996;4.504;2022-10-16T08:30:53;17.36;71.49
71173;DHT22;58875;51.996;4.504;2022-10-16T08:33:18;16.77;73.49
71173;DHT22;58875;51.996;4.504;2022-10-16T08:35:51;16.39;75.48
71173;DHT22;58875;51.996;4.504;2022-10-16T08:38:17;16.42;75.73
71173;DHT22;58875;51.996;4.504;2022-10-16T08:40:43;16.45;76.03
71173;DHT22;58875;51.996;4.504;2022-10-16T08:48:46;16.40;75.75
71173;DHT22;58875;51.996;4.504;2022-10-16T08:51:31;16.42;75.71
71173;DHT22;58875;51.996;4.504;2022-10-16T08:54:08;16.46;76.01
71173;DHT22;58875;51.996;4.504;2022-10-16T08:56:36;16.56;75.07
71173;DHT22;58875;51.996;4.504;2022-10-16T08:59:01;16.43;75.16
71173;DHT22;58875;51.996;4.504;2022-10-16T09:01:50;16.39;75.47
71173;DHT22;58875;51.996;4.504;2022-10-16T09:04:40;16.49;76.12
71173;DHT22;58875;51.996;4.504;2022-10-16T09:07:24;16.38;75.98
71173;DHT22;58875;51.996;4.504;2022-10-16T09:10:22;16.57;75.87
71173;DHT22;58875;51.996;4.504;2022-10-16T09:13:12;16.70;75.07
71173;DHT22;58875;51.996;4.504;2022-10-16T09:15:59;16.81;74.83
71173;DHT22;58875;51.996;4.504;2022-10-16T09:18:45;16.80;74.28
71173;DHT22;58875;51.996;4.504;2022-10-16T09:21:31;16.88;74.69
71173;DHT22;58875;51.996;4.504;2022-10-16T09:26:43;17.03;73.94
71173;DHT22;58875;51.996;4.504;2022-10-16T09:29:12;17.12;73.71
71173;DHT22;58875;51.996;4.504;2022-10-16T09:31:38;17.25;73.53
71173;DHT22;58875;51.996;4.504;2022-10-16T09:34:08;17.11;72.58
71173;DHT22;58875;51.996;4.504;2022-10-16T09:36:42;16.97;72.94
71173;DHT22;58875;51.996;4.504;2022-10-16T09:39:10;16.93;73.40
71173;DHT22;58875;51.996;4.504;2022-10-16T09:41:44;17.06;72.68
71173;DHT22;58875;51.996;4.504;2022-10-16T09:44:42;17.20;72.76
71173;DHT22;58875;51.996;4.504;2022-10-16T09:47:15;16.97;72.36
71173;DHT22;58875;51.996;4.504;2022-10-16T09:49:59;16.77;72.45
71173;DHT22;58875;51.996;4.504;2022-10-16T09:52:28;16.69;73.12
71173;DHT22;58875;51.996;4.504;2022-10-16T09:54:57;16.55;73.01
71173;DHT22;58875;51.996;4.504;2022-10-16T09:57:24;16.50;73.58
71173;DHT22;58875;51.996;4.504;2022-10-16T09:59:52;16.66;73.51
71173;DHT22;58875;51.996;4.504;2022-10-16T10:02:33;16.66;72.58
71173;DHT22;58875;51.996;4.504;2022-10-16T10:05:01;16.66;72.43
71173;DHT22;58875;51.996;4.504;2022-10-16T10:07:31;16.62;70.09
71173;DHT22;58875;51.996;4.504;2022-10-16T10:10:03;16.62;71.32
71173;DHT22;58875;51.996;4.504;2022-10-16T10:12:31;16.69;70.94
71173;DHT22;58875;51.996;4.504;2022-10-16T10:15:04;16.62;70.43
71173;DHT22;58875;51.996;4.504;2022-10-16T10:17:31;16.67;71.13
71173;DHT22;58875;51.996;4.504;2022-10-16T10:20:21;16.63;70.34
71173;DHT22;58875;51.996;4.504;2022-10-16T10:22:47;16.84;70.67
71173;DHT22;58875;51.996;4.504;2022-10-16T10:33:48;17.21;69.77
71173;DHT22;58875;51.996;4.504;2022-10-16T10:36:35;17.42;69.82
71173;DHT22;58875;51.996;4.504;2022-10-16T10:44:50;17.58;67.77
71173;DHT22;58875;51.996;4.504;2022-10-16T10:50:22;17.73;65.96
71173;DHT22;58875;51.996;4.504;2022-10-16T11:03:45;17.35;66.22
71173;DHT22;58875;51.996;4.504;2022-10-16T11:09:13;17.34;65.06
71173;DHT22;58875;51.996;4.504;2022-10-16T11:11:45;17.55;65.06
71173;DHT22;58875;51.996;4.504;2022-10-16T11:14:25;17.85;64.54
71173;DHT22;58875;51.996;4.504;2022-10-16T11:17:12;18.13;62.42
71173;DHT22;58875;51.996;4.504;2022-10-16T11:19:53;18.07;61.60
71173;DHT22;58875;51.996;4.504;2022-10-16T11:22:58;18.07;61.91
71173;DHT22;58875;51.996;4.504;2022-10-16T11:25:32;18.03;60.13
71173;DHT22;58875;51.996;4.504;2022-10-16T11:28:20;17.93;60.84
71173;DHT22;58875;51.996;4.504;2022-10-16T11:33:32;18.12;61.64
71173;DHT22;58875;51.996;4.504;2022-10-16T11:36:26;18.20;61.43
71173;DHT22;58875;51.996;4.504;2022-10-16T11:39:22;18.24;60.54
71173;DHT22;58875;51.996;4.504;2022-10-16T11:50:40;18.75;59.26
71173;DHT22;58875;51.996;4.504;2022-10-16T11:55:52;18.89;59.35
71173;DHT22;58875;51.996;4.504;2022-10-16T11:58:28;18.62;55.69
71173;DHT22;58875;51.996;4.504;2022-10-16T12:06:58;18.60;58.12
71173;DHT22;58875;51.996;4.504;2022-10-16T12:11:53;18.68;53.95
71173;DHT22;58875;51.996;4.504;2022-10-16T12:14:32;18.54;55.37
71173;DHT22;58875;51.996;4.504;2022-10-16T12:17:24;18.22;55.75
71173;DHT22;58875;51.996;4.504;2022-10-16T12:23:01;18.27;55.30
71173;DHT22;58875;51.996;4.504;2022-10-16T12:25:33;18.27;56.36
71173;DHT22;58875;51.996;4.504;2022-10-16T12:28:26;18.12;55.77
71173;DHT22;58875;51.996;4.504;2022-10-16T12:31:03;17.96;57.71
71173;DHT22;58875;51.996;4.504;2022-10-16T12:33:33;18.04;56.68
71173;DHT22;58875;51.996;4.504;2022-10-16T12:36:01;18.18;57.36
71173;DHT22;58875;51.996;4.504;2022-10-16T12:38:38;18.14;58.01
71173;DHT22;58875;51.996;4.504;2022-10-16T12:41:10;18.18;57.64
71173;DHT22;58875;51.996;4.504;2022-10-16T12:43:43;18.38;58.48
71173;DHT22;58875;51.996;4.504;2022-10-16T12:48:35;18.57;56.16
71173;DHT22;58875;51.996;4.504;2022-10-16T13:08:54;18.74;55.47
71173;DHT22;58875;51.996;4.504;2022-10-16T13:25:30;18.26;54.98
71173;DHT22;58875;51.996;4.504;2022-10-16T13:28:05;18.27;55.48
71173;DHT22;58875;51.996;4.504;2022-10-16T13:30:53;18.41;54.78
71173;DHT22;58875;51.996;4.504;2022-10-16T13:35:58;18.43;55.46
71173;DHT22;58875;51.996;4.504;2022-10-16T13:38:31;18.33;55.76
71173;DHT22;58875;51.996;4.504;2022-10-16T13:41:03;18.29;56.56
71173;DHT22;58875;51.996;4.504;2022-10-16T13:43:52;18.30;56.88
71173;DHT22;58875;51.996;4.504;2022-10-16T13:46:19;18.31;57.18
71173;DHT22;58875;51.996;4.504;2022-10-16T13:48:59;18.33;57.79
71173;DHT22;58875;51.996;4.504;2022-10-16T13:51:26;18.27;58.63
71173;DHT22;58875;51.996;4.504;2022-10-16T13:53:51;18.40;58.19
71173;DHT22;58875;51.996;4.504;2022-10-16T13:56:21;18.51;59.43
71173;DHT22;58875;51.996;4.504;2022-10-16T13:59:20;18.60;59.72
71173;DHT22;58875;51.996;4.504;2022-10-16T14:01:47;18.64;59.35
71173;DHT22;58875;51.996;4.504;2022-10-16T14:04:14;18.62;60.70
71173;DHT22;58875;51.996;4.504;2022-10-16T14:06:43;18.67;60.10
71173;DHT22;58875;51.996;4.504;2022-10-16T14:09:22;18.69;60.35
71173;DHT22;58875;51.996;4.504;2022-10-16T14:14:22;18.72;61.16
71173;DHT22;58875;51.996;4.504;2022-10-16T14:16:48;18.79;61.62
71173;DHT22;58875;51.996;4.504;2022-10-16T14:21:47;18.88;61.14
71173;DHT22;58875;51.996;4.504;2022-10-16T14:26:55;18.74;61.20
71173;DHT22;58875;51.996;4.504;2022-10-16T14:29:23;18.64;61.14
71173;DHT22;58875;51.996;4.504;2022-10-16T14:31:59;18.44;61.80
71173;DHT22;58875;51.996;4.504;2022-10-16T14:34:27;18.45;61.49
71173;DHT22;58875;51.996;4.504;2022-10-16T14:36:54;18.48;61.17
71173;DHT22;58875;51.996;4.504;2022-10-16T14:39:22;18.53;60.65
71173;DHT22;58875;51.996;4.504;2022-10-16T14:41:50;18.58;60.57
71173;DHT22;58875;51.996;4.504;2022-10-16T14:44:18;18.54;60.86
71173;DHT22;58875;51.996;4.504;2022-10-16T14:46:45;18.53;60.55
71173;DHT22;58875;51.996;4.504;2022-10-16T14:51:38;18.50;59.17
71173;DHT22;58875;51.996;4.504;2022-10-16T14:54:08;18.45;59.70
71173;DHT22;58875;51.996;4.504;2022-10-16T14:59:57;18.45;60.66
71173;DHT22;58875;51.996;4.504;2022-10-16T15:02:30;18.45;60.33
71173;DHT22;58875;51.996;4.504;2022-10-16T15:04:57;18.43;61.17
71173;DHT22;58875;51.996;4.504;2022-10-16T15:07:24;18.41;61.18
71173;DHT22;58875;51.996;4.504;2022-10-16T15:09:49;18.43;60.64
71173;DHT22;58875;51.996;4.504;2022-10-16T15:12:16;18.34;60.81
71173;DHT22;58875;51.996;4.504;2022-10-16T15:14:41;18.31;61.17
71173;DHT22;58875;51.996;4.504;2022-10-16T15:17:10;18.33;62.56
71173;DHT22;58875;51.996;4.504;2022-10-16T15:19:35;18.37;62.72
71173;DHT22;58875;51.996;4.504;2022-10-16T15:22:01;18.33;62.96
71173;DHT22;58875;51.996;4.504;2022-10-16T15:24:26;18.33;63.57
71173;DHT22;58875;51.996;4.504;2022-10-16T15:26:52;18.30;62.74
71173;DHT22;58875;51.996;4.504;2022-10-16T15:29:17;18.24;63.68
71173;DHT22;58875;51.996;4.504;2022-10-16T15:31:43;18.20;63.01
71173;DHT22;58875;51.996;4.504;2022-10-16T15:34:10;18.20;64.00
71173;DHT22;58875;51.996;4.504;2022-10-16T15:36:37;18.22;64.36
71173;DHT22;58875;51.996;4.504;2022-10-16T15:39:04;18.17;64.68
71173;DHT22;58875;51.996;4.504;2022-10-16T15:41:31;18.12;64.20
71173;DHT22;58875;51.996;4.504;2022-10-16T15:43:56;18.06;63.55
71173;DHT22;58875;51.996;4.504;2022-10-16T15:46:23;18.03;64.29
71173;DHT22;58875;51.996;4.504;2022-10-16T15:48:50;18.02;64.94
71173;DHT22;58875;51.996;4.504;2022-10-16T15:51:18;17.99;64.56
71173;DHT22;58875;51.996;4.504;2022-10-16T15:53:44;17.97;65.33
71173;DHT22;58875;51.996;4.504;2022-10-16T15:56:13;17.96;65.37
71173;DHT22;58875;51.996;4.504;2022-10-16T15:58:39;17.96;66.35
71173;DHT22;58875;51.996;4.504;2022-10-16T16:01:05;17.93;66.24
71173;DHT22;58875;51.996;4.504;2022-10-16T16:03:32;17.89;66.89
71173;DHT22;58875;51.996;4.504;2022-10-16T16:06:03;17.83;67.21
71173;DHT22;58875;51.996;4.504;2022-10-16T16:08:29;17.78;67.50
71173;DHT22;58875;51.996;4.504;2022-10-16T16:11:04;17.75;68.11
71173;DHT22;58875;51.996;4.504;2022-10-16T16:13:30;17.66;68.41
71173;DHT22;58875;51.996;4.504;2022-10-16T16:15:56;17.65;68.34
71173;DHT22;58875;51.996;4.504;2022-10-16T16:18:21;17.61;68.60
71173;DHT22;58875;51.996;4.504;2022-10-16T16:20:49;17.59;68.13
71173;DHT22;58875;51.996;4.504;2022-10-16T16:23:15;17.51;68.51
71173;DHT22;58875;51.996;4.504;2022-10-16T16:25:40;17.53;68.20
71173;DHT22;58875;51.996;4.504;2022-10-16T16:28:06;17.48;68.07
71173;DHT22;58875;51.996;4.504;2022-10-16T16:30:32;17.46;68.15
71173;DHT22;58875;51.996;4.504;2022-10-16T16:32:58;17.41;68.54
71173;DHT22;58875;51.996;4.504;2022-10-16T16:35:23;17.41;68.87
71173;DHT22;58875;51.996;4.504;2022-10-16T16:37:49;17.36;69.39
71173;DHT22;58875;51.996;4.504;2022-10-16T16:40:15;17.36;69.71
71173;DHT22;58875;51.996;4.504;2022-10-16T16:42:40;17.31;70.18
71173;DHT22;58875;51.996;4.504;2022-10-16T16:45:06;17.31;69.76
71173;DHT22;58875;51.996;4.504;2022-10-16T16:47:32;17.28;70.08
71173;DHT22;58875;51.996;4.504;2022-10-16T16:49:58;17.24;70.57
71173;DHT22;58875;51.996;4.504;2022-10-16T16:52:23;17.22;70.15
71173;DHT22;58875;51.996;4.504;2022-10-16T16:54:54;17.21;69.81
71173;DHT22;58875;51.996;4.504;2022-10-16T16:57:27;17.17;69.61
71173;DHT22;58875;51.996;4.504;2022-10-16T16:59:53;17.10;70.10
71173;DHT22;58875;51.996;4.504;2022-10-16T17:02:19;17.08;70.41
71173;DHT22;58875;51.996;4.504;2022-10-16T17:04:44;17.01;70.80
71173;DHT22;58875;51.996;4.504;2022-10-16T17:07:10;16.99;71.09
71173;DHT22;58875;51.996;4.504;2022-10-16T17:09:36;16.94;71.51
71173;DHT22;58875;51.996;4.504;2022-10-16T17:12:01;16.94;71.61
71173;DHT22;58875;51.996;4.504;2022-10-16T17:14:30;16.99;71.57
71173;DHT22;58875;51.996;4.504;2022-10-16T17:16:55;16.97;71.65
71173;DHT22;58875;51.996;4.504;2022-10-16T17:19:21;16.95;71.80
71173;DHT22;58875;51.996;4.504;2022-10-16T17:21:50;16.94;71.91
71173;DHT22;58875;51.996;4.504;2022-10-16T17:24:16;16.93;72.03
71173;DHT22;58875;51.996;4.504;2022-10-16T17:26:44;16.88;72.08
71173;DHT22;58875;51.996;4.504;2022-10-16T17:29:14;16.93;71.86
71173;DHT22;58875;51.996;4.504;2022-10-16T17:31:40;16.88;71.99
71173;DHT22;58875;51.996;4.504;2022-10-16T17:34:08;16.79;72.10
71173;DHT22;58875;51.996;4.504;2022-10-16T17:36:37;16.79;72.06
71173;DHT22;58875;51.996;4.504;2022-10-16T17:39:06;16.73;72.20
71173;DHT22;58875;51.996;4.504;2022-10-16T17:41:33;16.71;72.03
71173;DHT22;58875;51.996;4.504;2022-10-16T17:43:59;16.69;72.03
71173;DHT22;58875;51.996;4.504;2022-10-16T17:46:26;16.67;72.14
71173;DHT22;58875;51.996;4.504;2022-10-16T17:48:53;16.69;72.05
71173;DHT22;58875;51.996;4.504;2022-10-16T17:51:25;16.63;72.08
71173;DHT22;58875;51.996;4.504;2022-10-16T17:53:53;16.67;71.99